createdAt,value
2022-08-20T00:04:03.578Z,25.72
2022-08-20T00:10:23.869Z,25.70
2022-08-20T00:16:48.256Z,25.67
2022-08-20T00:23:12.544Z,25.65
2022-08-20T00:29:22.579Z,25.60
2022-08-20T00:35:44.139Z,25.54
2022-08-20T00:42:08.512Z,25.48
2022-08-20T00:48:25.799Z,25.40
2022-08-20T00:54:51.506Z,25.32
2022-08-20T01:01:16.527Z,25.27
2022-08-20T01:07:39.697Z,25.19
2022-08-20T01:14:02.549Z,25.16
2022-08-20T01:20:32.432Z,25.15
2022-08-20T01:27:08.403Z,25.13
2022-08-20T01:33:25.573Z,27.26
2022-08-20T01:39:43.788Z,29.44
2022-08-20T01:46:08.205Z,29.30
2022-08-20T01:52:28.020Z,27.79
2022-08-20T01:58:56.068Z,26.99
2022-08-20T02:05:16.243Z,26.45
2022-08-20T02:11:40.791Z,26.02
2022-08-20T02:18:05.562Z,25.70
2022-08-20T02:24:32.459Z,25.45
2022-08-20T02:30:56.784Z,25.29
2022-08-20T02:37:21.030Z,25.19
2022-08-20T02:43:38.336Z,25.11
2022-08-20T02:49:55.598Z,25.06
2022-08-20T02:56:12.326Z,26.86
2022-08-20T03:02:36.522Z,28.14
2022-08-20T03:08:46.137Z,26.88
2022-08-20T03:15:03.230Z,26.24
2022-08-20T03:21:27.284Z,25.83
2022-08-20T03:27:43.099Z,25.56
2022-08-20T03:34:09.522Z,25.34
2022-08-20T03:40:33.829Z,25.15
2022-08-20T03:46:58.245Z,27.14
2022-08-20T03:53:22.443Z,28.21
2022-08-20T03:59:46.639Z,26.90
2022-08-20T04:06:18.934Z,26.26
2022-08-20T04:12:35.789Z,25.87
2022-08-20T04:19:01.578Z,25.61
2022-08-20T04:25:18.689Z,25.37
2022-08-20T04:31:41.276Z,25.14
2022-08-20T04:38:04.595Z,27.09
2022-08-20T04:44:28.811Z,28.17
2022-08-20T04:50:50.469Z,26.86
2022-08-20T04:57:12.319Z,26.26
2022-08-20T05:03:30.458Z,25.96
2022-08-20T05:09:44.134Z,25.75
2022-08-20T05:16:01.102Z,25.62
2022-08-20T05:22:18.091Z,25.49
2022-08-20T05:28:54.427Z,25.36
2022-08-20T05:35:23.099Z,25.23
2022-08-20T05:41:47.335Z,27.14
2022-08-20T05:48:11.636Z,28.25
2022-08-20T05:54:34.702Z,26.97
2022-08-20T06:00:58.359Z,26.48
2022-08-20T06:07:21.467Z,26.22
2022-08-20T06:13:45.862Z,26.02
2022-08-20T06:20:11.883Z,25.87
2022-08-20T06:26:38.793Z,25.77
2022-08-20T06:32:57.362Z,25.69
2022-08-20T06:39:23.702Z,25.65
2022-08-20T06:45:48.098Z,25.62
2022-08-20T06:52:15.532Z,25.61
2022-08-20T06:58:36.361Z,25.62
2022-08-20T07:05:04.638Z,25.63
2022-08-20T07:11:28.656Z,25.66
2022-08-20T07:17:56.399Z,25.69
2022-08-20T07:24:23.095Z,27.79
2022-08-20T07:30:55.801Z,28.97
2022-08-20T07:37:21.419Z,27.80
2022-08-20T07:43:18.984Z,27.30
2022-08-20T07:49:39.796Z,26.98
2022-08-20T07:56:04.046Z,26.71
2022-08-20T08:02:28.428Z,26.51
2022-08-20T08:08:52.970Z,26.37
2022-08-20T08:15:23.728Z,26.28
2022-08-20T08:21:54.481Z,26.23
2022-08-20T08:28:04.066Z,26.20
2022-08-20T08:34:24.249Z,26.20
2022-08-20T08:40:47.178Z,26.21
2022-08-20T08:47:15.022Z,26.23
2022-08-20T08:53:32.404Z,26.25
2022-08-20T09:00:03.893Z,26.25
2022-08-20T09:06:31.439Z,26.28
2022-08-20T09:12:47.769Z,26.31
2022-08-20T09:19:12.385Z,26.33
2022-08-20T09:25:36.699Z,26.35
2022-08-20T09:32:01.005Z,26.37
2022-08-20T09:38:26.797Z,26.38
2022-08-20T09:44:43.701Z,26.39
2022-08-20T09:50:47.892Z,26.41
2022-08-20T09:57:12.106Z,26.43
2022-08-20T10:03:36.325Z,26.45
2022-08-20T10:10:06.339Z,26.47
2022-08-20T10:16:23.404Z,26.50
2022-08-20T10:22:36.057Z,26.53
2022-08-20T10:28:43.174Z,26.56
2022-08-20T10:35:00.255Z,26.58
2022-08-20T10:41:24.961Z,26.61
2022-08-20T10:47:56.136Z,26.63
2022-08-20T10:54:19.464Z,26.66
2022-08-20T11:00:36.554Z,26.70
2022-08-20T11:07:00.983Z,26.72
2022-08-20T11:13:25.478Z,26.75
2022-08-20T11:19:50.115Z,26.77
2022-08-20T11:26:14.343Z,26.79
2022-08-20T11:32:37.585Z,26.77
2022-08-20T11:38:42.838Z,28.79
2022-08-20T11:45:07.040Z,29.90
2022-08-20T11:51:31.266Z,28.64
2022-08-20T11:58:06.175Z,27.98
2022-08-20T12:04:28.788Z,27.59
2022-08-20T12:10:50.749Z,27.32
2022-08-20T12:17:00.553Z,28.98
2022-08-20T12:23:23.616Z,29.97
2022-08-20T12:29:40.921Z,28.71
2022-08-20T12:35:46.688Z,28.07
2022-08-20T12:41:52.024Z,27.71
2022-08-20T12:48:18.068Z,27.51
2022-08-20T12:54:42.355Z,27.33
2022-08-20T13:01:01.575Z,27.20
2022-08-20T13:07:16.155Z,28.95
2022-08-20T13:13:13.800Z,30.07
2022-08-20T13:19:26.887Z,29.02
2022-08-20T13:25:49.956Z,28.52
2022-08-20T13:32:06.875Z,28.21
2022-08-20T13:38:02.073Z,28.00
2022-08-20T13:44:33.287Z,29.67
2022-08-20T13:50:49.604Z,30.78
2022-08-20T13:57:06.812Z,29.61
2022-08-20T14:03:13.892Z,29.04
2022-08-20T14:09:38.179Z,28.66
2022-08-20T14:15:55.216Z,28.39
2022-08-20T14:22:04.532Z,28.20
2022-08-20T14:28:27.996Z,28.08
2022-08-20T14:34:36.301Z,27.96
2022-08-20T14:41:00.977Z,27.88
2022-08-20T14:47:17.106Z,29.60
2022-08-20T14:53:41.790Z,30.68
2022-08-20T14:59:56.215Z,29.58
2022-08-20T15:06:21.945Z,29.06
2022-08-20T15:12:30.232Z,28.72
2022-08-20T15:18:54.145Z,28.47
2022-08-20T15:25:16.545Z,28.31
2022-08-20T15:31:33.830Z,28.17
2022-08-20T15:37:50.758Z,27.94
2022-08-20T15:44:07.442Z,27.77
2022-08-20T15:50:13.917Z,29.48
2022-08-20T15:55:58.593Z,30.77
2022-08-20T16:02:09.194Z,29.81
2022-08-20T16:08:07.195Z,29.29
2022-08-20T16:14:14.663Z,28.97
2022-08-20T16:20:39.020Z,28.72
2022-08-20T16:26:47.680Z,28.51
2022-08-20T16:33:11.502Z,28.35
2022-08-20T16:39:19.232Z,28.20
2022-08-20T16:45:23.510Z,28.09
2022-08-20T16:51:52.399Z,27.99
2022-08-20T16:57:59.562Z,27.89
2022-08-20T17:04:16.822Z,27.79
2022-08-20T17:10:03.955Z,27.71
2022-08-20T17:16:03.613Z,27.65
2022-08-20T17:22:07.888Z,27.59
2022-08-20T17:28:35.432Z,27.53
2022-08-20T17:34:40.095Z,27.48
2022-08-20T17:40:59.691Z,27.42
2022-08-20T17:47:23.911Z,27.34
2022-08-20T17:53:57.338Z,27.21
2022-08-20T18:00:24.388Z,27.10
2022-08-20T18:06:30.694Z,27.01
2022-08-20T18:12:50.922Z,26.92
2022-08-20T18:18:57.718Z,26.85
2022-08-20T18:25:06.517Z,26.75
2022-08-20T18:31:09.231Z,26.69
2022-08-20T18:37:12.417Z,26.63
2022-08-20T18:43:16.648Z,26.56
2022-08-20T18:49:20.653Z,26.51
2022-08-20T18:55:24.593Z,26.47
2022-08-20T19:01:30.325Z,26.41
2022-08-20T19:07:27.497Z,26.37
2022-08-20T19:13:57.915Z,26.32
2022-08-20T19:20:01.976Z,26.25
2022-08-20T19:26:04.475Z,26.21
2022-08-20T19:32:09.245Z,26.18
2022-08-20T19:38:09.686Z,26.14
2022-08-20T19:44:12.459Z,26.09
2022-08-20T19:50:18.300Z,26.04
2022-08-20T19:56:23.546Z,25.97
2022-08-20T20:02:35.524Z,25.92
2022-08-20T20:08:39.572Z,25.89
2022-08-20T20:14:43.501Z,25.84
2022-08-20T20:21:05.735Z,25.78
2022-08-20T20:27:14.795Z,25.65
2022-08-20T20:33:24.063Z,25.51
2022-08-20T20:39:40.238Z,25.47
2022-08-20T20:45:44.434Z,25.42
2022-08-20T20:51:57.341Z,25.44
2022-08-20T20:58:04.264Z,25.44
2022-08-20T21:04:09.567Z,25.43
2022-08-20T21:10:06.190Z,25.43
2022-08-20T21:16:13.422Z,25.42
2022-08-20T21:22:19.639Z,25.37
2022-08-20T21:28:28.410Z,25.34
2022-08-20T21:34:33.513Z,25.30
2022-08-20T21:40:37.014Z,25.19
2022-08-20T21:46:41.104Z,24.88
2022-08-20T21:52:55.250Z,24.60
2022-08-20T21:59:03.587Z,25.51
2022-08-20T22:05:07.517Z,28.21
2022-08-20T22:11:11.367Z,29.28
2022-08-20T22:17:15.379Z,30.02
2022-08-20T22:23:19.576Z,30.13
2022-08-20T22:29:23.635Z,28.23
2022-08-20T22:35:26.263Z,26.91
2022-08-20T22:41:30.054Z,26.05
2022-08-20T22:47:34.219Z,25.44
2022-08-20T22:53:38.099Z,24.93
2022-08-20T22:59:41.436Z,24.58
2022-08-20T23:06:05.178Z,24.33
2022-08-20T23:12:11.327Z,24.16
2022-08-20T23:18:18.011Z,24.03
2022-08-20T23:24:24.255Z,23.93
2022-08-20T23:30:38.468Z,23.81
2022-08-20T23:36:44.004Z,23.74
2022-08-20T23:42:40.710Z,23.99
2022-08-20T23:48:44.646Z,27.05
2022-08-20T23:54:48.651Z,28.62
